Time;durP1;ratioP1;P1;durP2;ratioP2;P2;SDS_P1;SDS_P2;PMS_P1;PMS_P2;Temp;Humidity;BMP_temperature;BMP_pressure;BME280_temperature;BME280_humidity;BME280_pressure;Samples;Min_cycle;Max_cycle;Signal;HPM_P1;HPM_P2
2022/06/19 00:01:46;;;;;;;5.37;4.57;;;21.30;99.60;;;;;;6283419;22;20781;-91
2022/06/19 00:04:12;;;;;;;5.80;3.60;;;21.30;99.70;;;;;;6312334;22;20376;-94
2022/06/19 00:06:38;;;;;;;4.83;4.10;;;21.20;99.60;;;;;;6284512;22;20186;-93
2022/06/19 00:09:06;;;;;;;5.47;4.43;;;21.20;99.60;;;;;;6311306;22;20399;-95
2022/06/19 00:11:33;;;;;;;5.60;4.33;;;21.20;99.70;;;;;;6283732;22;20420;-95
2022/06/19 00:14:00;;;;;;;5.67;4.07;;;21.10;99.60;;;;;;6284506;22;20876;-93
2022/06/19 00:16:26;;;;;;;7.27;3.90;;;21.10;99.60;;;;;;6287543;22;20426;-93
2022/06/19 00:18:52;;;;;;;4.80;4.37;;;21.10;99.70;;;;;;6320114;22;20387;-93
2022/06/19 00:21:18;;;;;;;4.47;4.07;;;21.00;99.70;;;;;;6299738;22;20388;-95
2022/06/19 00:23:45;;;;;;;4.90;4.03;;;21.00;99.70;;;;;;6286687;22;20199;-92
2022/06/19 00:26:12;;;;;;;4.73;4.17;;;20.90;99.80;;;;;;6284675;22;20584;-92
2022/06/19 00:28:39;;;;;;;3.50;3.20;;;20.90;99.90;;;;;;6283849;22;20392;-93
2022/06/19 00:31:05;;;;;;;3.93;3.60;;;20.90;99.90;;;;;;6282672;22;20457;-93
2022/06/19 00:33:31;;;;;;;4.60;4.00;;;20.90;99.90;;;;;;6282394;22;20908;-94
2022/06/19 00:35:57;;;;;;;3.60;3.30;;;20.80;99.80;;;;;;6282142;22;20160;-95
2022/06/19 00:38:22;;;;;;;4.73;3.80;;;20.80;99.90;;;;;;6284358;22;20176;-96
2022/06/19 00:40:48;;;;;;;4.53;4.10;;;20.80;99.90;;;;;;6289830;22;20577;-92
2022/06/19 00:43:14;;;;;;;4.53;3.70;;;20.80;99.90;;;;;;6284245;22;20644;-94
2022/06/19 00:45:42;;;;;;;4.43;4.03;;;20.80;99.90;;;;;;6285099;22;20159;-96
2022/06/19 00:48:24;;;;;;;5.00;3.63;;;20.80;99.90;;;;;;6284837;22;20184;-93
2022/06/19 00:50:52;;;;;;;4.03;3.63;;;20.80;99.90;;;;;;6284213;22;20399;-93
2022/06/19 00:53:28;;;;;;;6.40;3.77;;;20.80;99.90;;;;;;6284017;22;20472;-94
2022/06/19 00:55:55;;;;;;;5.30;4.60;;;20.70;99.90;;;;;;6310941;22;20754;-93
2022/06/19 00:58:26;;;;;;;4.60;3.67;;;20.70;99.90;;;;;;6278023;22;20463;-92
2022/06/19 01:00:57;;;;;;;4.30;3.90;;;20.70;99.90;;;;;;6278872;22;20412;-95
2022/06/19 01:03:37;;;;;;;3.57;3.27;;;20.60;99.90;;;;;;6279359;22;20439;-93
2022/06/19 01:06:04;;;;;;;11.67;4.43;;;20.60;99.90;;;;;;6279292;22;20874;-96
2022/06/19 01:08:31;;;;;;;5.13;4.60;;;20.60;99.90;;;;;;6279258;22;20400;-92
2022/06/19 01:10:57;;;;;;;4.63;4.20;;;20.50;99.90;;;;;;6278884;22;20454;-94
2022/06/19 01:13:26;;;;;;;3.93;3.53;;;20.50;99.90;;;;;;6278909;22;20407;-96
2022/06/19 01:15:52;;;;;;;4.13;3.83;;;20.50;99.90;;;;;;6279923;22;20486;-95
2022/06/19 01:18:19;;;;;;;5.47;4.87;;;20.40;99.90;;;;;;6279864;22;20422;-96
2022/06/19 01:20:48;;;;;;;16.20;4.67;;;20.40;99.90;;;;;;6278965;22;20396;-96
2022/06/19 01:23:36;;;;;;;6.80;4.77;;;20.30;99.90;;;;;;6282835;22;20506;-93
2022/06/19 01:26:02;;;;;;;3.50;3.20;;;20.30;99.90;;;;;;6279190;22;20399;-96
2022/06/19 01:28:45;;;;;;;4.33;3.53;;;20.20;99.90;;;;;;6277807;22;20737;-92
2022/06/19 01:31:17;;;;;;;5.40;3.47;;;20.20;99.90;;;;;;6280292;22;20411;-96
2022/06/19 01:33:57;;;;;;;3.80;3.50;;;20.10;99.90;;;;;;6282899;22;20389;-92
2022/06/19 01:36:25;;;;;;;5.10;4.30;;;20.10;99.90;;;;;;6292152;22;20400;-95
2022/06/19 01:38:52;;;;;;;4.57;4.17;;;20.10;99.90;;;;;;6279238;22;20457;-96
2022/06/19 01:41:27;;;;;;;5.53;5.03;;;20.00;99.90;;;;;;6277074;22;20436;-93
2022/06/19 01:43:52;;;;;;;4.90;4.40;;;20.00;99.90;;;;;;6280435;22;20730;-92
2022/06/19 01:46:18;;;;;;;4.73;4.33;;;19.90;99.90;;;;;;6277169;22;20438;-96
2022/06/19 01:48:45;;;;;;;5.43;4.43;;;19.80;99.90;;;;;;6278964;22;20226;-96
2022/06/19 01:51:11;;;;;;;4.20;3.80;;;19.80;99.90;;;;;;6278950;22;20400;-96
2022/06/19 01:53:55;;;;;;;4.67;4.20;;;19.80;99.90;;;;;;6280131;22;20368;-94
2022/06/19 01:56:22;;;;;;;5.63;4.83;;;19.80;99.90;;;;;;6281950;22;20150;-93
2022/06/19 01:58:51;;;;;;;5.10;4.27;;;19.80;99.90;;;;;;6279256;22;20777;-95
2022/06/19 02:01:17;;;;;;;4.73;4.23;;;19.80;99.90;;;;;;6279497;22;20443;-95
2022/06/19 02:03:47;;;;;;;5.80;4.40;;;19.80;99.90;;;;;;6280000;22;20905;-93
2022/06/19 02:06:18;;;;;;;6.13;4.40;;;19.80;99.90;;;;;;6278980;22;20171;-96
2022/06/19 02:08:45;;;;;;;5.13;4.30;;;19.90;99.90;;;;;;6281124;22;20381;-96
2022/06/19 02:11:12;;;;;;;5.73;4.40;;;19.80;99.90;;;;;;6280484;22;20392;-93
2022/06/19 02:13:39;;;;;;;4.93;4.43;;;19.80;99.90;;;;;;6278804;22;20427;-92
2022/06/19 02:16:17;;;;;;;4.93;4.13;;;19.90;99.90;;;;;;6279904;22;20391;-93
2022/06/19 02:18:45;;;;;;;4.57;4.17;;;19.90;99.90;;;;;;6287338;22;20381;-92
2022/06/19 02:21:18;;;;;;;5.63;3.83;;;19.80;99.90;;;;;;6283453;22;20773;-92
2022/06/19 02:23:44;;;;;;;4.70;4.30;;;19.80;99.90;;;;;;6279683;22;20907;-93
2022/06/19 02:26:11;;;;;;;4.13;3.73;;;19.80;99.90;;;;;;6279025;22;20392;-92
2022/06/19 02:28:43;;;;;;;5.60;4.23;;;19.80;99.90;;;;;;6279283;22;20388;-92
2022/06/19 02:31:10;;;;;;;5.03;4.47;;;19.80;99.90;;;;;;6281373;22;20400;-92
2022/06/19 02:33:59;;;;;;;6.13;4.47;;;19.80;99.90;;;;;;6279611;22;20391;-93
2022/06/19 02:36:35;;;;;;;8.90;4.70;;;19.80;99.90;;;;;;6279534;22;20395;-96
2022/06/19 02:39:30;;;;;;;4.07;3.67;;;19.70;99.90;;;;;;6279142;22;20436;-93
2022/06/19 02:42:19;;;;;;;6.20;4.70;;;19.70;99.90;;;;;;6281254;22;20441;-95
2022/06/19 02:44:48;;;;;;;6.53;4.47;;;19.70;99.90;;;;;;6284842;22;20423;-95
2022/06/19 02:47:14;;;;;;;5.00;4.40;;;19.70;99.90;;;;;;6287013;22;20412;-95
2022/06/19 02:49:40;;;;;;;5.83;5.23;;;19.60;99.90;;;;;;6278199;22;20850;-93
2022/06/19 02:52:08;;;;;;;5.40;4.90;;;19.60;99.90;;;;;;6278457;22;20409;-95
2022/06/19 02:54:35;;;;;;;5.00;4.13;;;19.60;99.90;;;;;;6284268;22;20371;-90
2022/06/19 02:57:01;;;;;;;7.30;4.00;;;19.60;99.90;;;;;;6282952;22;20439;-96
2022/06/19 02:59:27;;;;;;;5.97;4.17;;;19.50;99.90;;;;;;6283251;22;20390;-93
2022/06/19 03:01:52;;;;;;;4.90;4.30;;;19.50;99.90;;;;;;6283475;22;20416;-93
2022/06/19 03:04:24;;;;;;;5.47;4.23;;;19.50;99.90;;;;;;6283567;22;20873;-94
2022/06/19 03:06:51;;;;;;;6.53;4.80;;;19.40;99.90;;;;;;6282976;22;20518;-92
2022/06/19 03:09:17;;;;;;;5.17;4.53;;;19.40;99.90;;;;;;6294355;22;20383;-95
2022/06/19 03:11:42;;;;;;;5.47;4.97;;;19.40;99.90;;;;;;6291242;22;20914;-96
2022/06/19 03:14:09;;;;;;;6.90;4.60;;;19.40;99.90;;;;;;6283713;22;20910;-92
2022/06/19 03:16:34;;;;;;;7.07;4.83;;;19.40;99.90;;;;;;6292096;22;20479;-91
2022/06/19 03:19:00;;;;;;;6.03;5.00;;;19.40;99.90;;;;;;6283705;22;20383;-95
2022/06/19 03:21:27;;;;;;;6.33;5.73;;;19.40;99.90;;;;;;6283887;22;20220;-96
2022/06/19 03:23:53;;;;;;;6.83;4.80;;;19.40;99.90;;;;;;6286832;22;20190;-93
2022/06/19 03:26:18;;;;;;;5.20;4.40;;;19.40;99.90;;;;;;6284120;22;20400;-95
2022/06/19 03:28:44;;;;;;;6.57;4.70;;;19.40;99.90;;;;;;6285628;22;20153;-93
2022/06/19 03:31:16;;;;;;;6.43;4.90;;;19.40;99.90;;;;;;6312595;22;20580;-92
2022/06/19 03:33:42;;;;;;;7.47;4.93;;;19.40;99.90;;;;;;6293293;22;20419;-95
2022/06/19 03:36:08;;;;;;;6.60;4.80;;;19.40;99.90;;;;;;6325588;22;20394;-95
2022/06/19 03:38:33;;;;;;;5.90;4.43;;;19.40;99.90;;;;;;6297085;22;20180;-95
2022/06/19 03:40:59;;;;;;;5.20;4.53;;;19.40;99.90;;;;;;6290700;22;20170;-95
2022/06/19 03:43:25;;;;;;;5.87;4.40;;;19.50;99.90;;;;;;6285049;22;20221;-96
2022/06/19 03:45:51;;;;;;;6.63;4.77;;;19.50;99.90;;;;;;6296952;22;20204;-92
2022/06/19 03:48:16;;;;;;;5.07;4.50;;;19.50;99.90;;;;;;6284777;22;20262;-95
2022/06/19 03:50:42;;;;;;;7.90;4.70;;;19.50;99.90;;;;;;6290192;22;20217;-93
2022/06/19 03:53:09;;;;;;;6.03;4.83;;;19.50;99.90;;;;;;6286586;22;20513;-91
2022/06/19 03:55:35;;;;;;;8.77;4.80;;;19.50;99.90;;;;;;6283259;22;20167;-96
2022/06/19 03:58:01;;;;;;;5.70;5.13;;;19.50;99.90;;;;;;6291438;22;20442;-93
2022/06/19 04:00:26;;;;;;;5.93;5.33;;;19.50;99.90;;;;;;6317560;22;20395;-93
2022/06/19 04:02:52;;;;;;;5.40;4.90;;;19.60;99.90;;;;;;6287494;22;20431;-96
2022/06/19 04:05:19;;;;;;;7.63;5.27;;;19.60;99.90;;;;;;6283238;22;20237;-93
2022/06/19 04:07:47;;;;;;;5.37;4.80;;;19.60;99.90;;;;;;6283603;22;20186;-93
2022/06/19 04:10:15;;;;;;;5.60;4.70;;;19.70;99.90;;;;;;6283523;22;20387;-93
2022/06/19 04:12:40;;;;;;;6.83;5.47;;;19.70;99.90;;;;;;6285458;22;20439;-96
2022/06/19 04:15:09;;;;;;;5.90;5.10;;;19.70;99.90;;;;;;6309823;22;20371;-92
2022/06/19 04:17:35;;;;;;;5.47;4.47;;;19.80;99.90;;;;;;6282809;22;20183;-93
2022/06/19 04:20:01;;;;;;;5.63;4.60;;;19.80;99.90;;;;;;6282895;22;20876;-93
2022/06/19 04:22:27;;;;;;;5.60;5.00;;;19.80;99.90;;;;;;6282719;22;20770;-96
2022/06/19 04:24:53;;;;;;;6.30;4.40;;;19.90;99.90;;;;;;6283575;22;20394;-96
2022/06/19 04:27:18;;;;;;;6.47;5.50;;;19.90;99.90;;;;;;6310647;22;20178;-96
2022/06/19 04:29:44;;;;;;;5.87;5.30;;;20.00;99.90;;;;;;6283793;22;20676;-93
2022/06/19 04:32:10;;;;;;;6.07;5.47;;;20.10;99.90;;;;;;6283748;22;20205;-93
2022/06/19 04:34:35;;;;;;;6.37;5.23;;;20.10;99.90;;;;;;6283018;22;20646;-95
2022/06/19 04:37:01;;;;;;;5.80;5.20;;;20.20;99.90;;;;;;6311829;22;20183;-93
2022/06/19 04:39:27;;;;;;;5.17;4.67;;;20.20;99.90;;;;;;6284534;22;20607;-94
2022/06/19 04:41:53;;;;;;;6.10;4.70;;;20.30;99.90;;;;;;6312683;22;20245;-93
2022/06/19 04:44:18;;;;;;;5.87;5.27;;;20.40;99.90;;;;;;6283761;22;20599;-93
2022/06/19 04:46:45;;;;;;;8.03;5.60;;;20.40;99.90;;;;;;6283385;22;20631;-93
2022/06/19 04:49:13;;;;;;;6.10;5.50;;;20.50;99.90;;;;;;6318455;22;20365;-93
2022/06/19 04:51:39;;;;;;;6.07;5.20;;;20.60;99.90;;;;;;6285496;22;20447;-93
2022/06/19 04:54:05;;;;;;;6.43;4.60;;;20.70;99.90;;;;;;6286572;22;20681;-93
2022/06/19 04:56:31;;;;;;;8.43;4.83;;;20.70;99.90;;;;;;6289724;22;20494;-93
2022/06/19 04:58:56;;;;;;;5.80;4.70;;;20.80;99.90;;;;;;6296122;22;20457;-93
2022/06/19 05:01:28;;;;;;;5.00;4.60;;;20.80;99.90;;;;;;6298431;22;20160;-96
2022/06/19 05:03:57;;;;;;;4.93;4.53;;;20.90;99.90;;;;;;6288099;22;20190;-95
2022/06/19 05:06:28;;;;;;;6.40;4.73;;;21.00;99.90;;;;;;6311644;22;20388;-95
2022/06/19 05:08:54;;;;;;;5.80;5.03;;;21.10;99.90;;;;;;6300640;22;20361;-96
2022/06/19 05:11:21;;;;;;;5.37;4.87;;;21.10;99.90;;;;;;6309912;22;20426;-95
2022/06/19 05:13:47;;;;;;;110.60;54.57;;;21.20;99.90;;;;;;6310505;22;20396;-96
2022/06/19 05:16:15;;;;;;;23.23;15.53;;;21.30;99.90;;;;;;6289415;22;20404;-92
2022/06/19 05:18:41;;;;;;;476.00;226.57;;;21.40;99.90;;;;;;6296908;22;20539;-93
2022/06/19 05:21:07;;;;;;;258.17;124.20;;;21.50;99.90;;;;;;6286747;22;20396;-95
2022/06/19 05:23:39;;;;;;;12.90;11.33;;;21.60;99.90;;;;;;6295948;22;20454;-96
2022/06/19 05:26:18;;;;;;;9.83;7.97;;;21.60;99.90;;;;;;6311501;22;20857;-96
2022/06/19 05:28:45;;;;;;;21.70;12.53;;;21.70;99.90;;;;;;6312607;22;20368;-95
2022/06/19 05:31:11;;;;;;;7.53;6.80;;;21.80;99.90;;;;;;6313124;22;20377;-92
2022/06/19 05:33:37;;;;;;;5.87;5.37;;;21.90;99.90;;;;;;6311778;22;20388;-91
2022/06/19 05:36:04;;;;;;;12.33;8.00;;;22.00;99.90;;;;;;6284400;22;20420;-93
2022/06/19 05:38:30;;;;;;;6.67;5.97;;;22.10;99.90;;;;;;6311060;22;20392;-93
2022/06/19 05:40:58;;;;;;;8.83;6.37;;;22.20;99.90;;;;;;6284299;22;20884;-93
2022/06/19 05:43:25;;;;;;;6.80;5.50;;;22.20;99.90;;;;;;6285123;22;20478;-95
2022/06/19 05:45:55;;;;;;;6.43;5.83;;;22.30;99.90;;;;;;6284591;22;20461;-96
2022/06/19 05:48:23;;;;;;;5.10;4.70;;;22.40;99.90;;;;;;6284254;22;20410;-93
2022/06/19 05:50:59;;;;;;;5.53;4.70;;;22.50;99.90;;;;;;6311442;22;20439;-93
2022/06/19 05:53:27;;;;;;;6.97;6.27;;;22.60;99.90;;;;;;6284089;22;20741;-94
2022/06/19 05:55:53;;;;;;;5.20;4.80;;;22.60;99.90;;;;;;6284991;22;20696;-96
2022/06/19 05:58:19;;;;;;;4.73;4.33;;;22.70;99.90;;;;;;6283941;22;20463;-96
2022/06/19 06:00:45;;;;;;;4.40;4.00;;;22.80;99.90;;;;;;6316847;22;20143;-93
2022/06/19 06:03:16;;;;;;;7.40;4.70;;;22.90;99.90;;;;;;6284657;22;20220;-96
2022/06/19 06:05:43;;;;;;;6.53;4.80;;;22.90;99.90;;;;;;6284894;22;20161;-96
2022/06/19 06:08:09;;;;;;;4.40;4.10;;;23.00;99.90;;;;;;6286982;22;20415;-96
2022/06/19 06:10:34;;;;;;;4.67;4.20;;;23.10;99.90;;;;;;6284118;22;20454;-96
2022/06/19 06:13:00;;;;;;;4.20;3.80;;;23.20;99.90;;;;;;6311552;22;20614;-96
2022/06/19 06:15:26;;;;;;;4.30;4.00;;;23.30;99.90;;;;;;6311933;22;20184;-96
2022/06/19 06:17:51;;;;;;;4.03;3.63;;;23.40;99.90;;;;;;6284135;22;20191;-92
2022/06/19 06:20:17;;;;;;;4.80;4.40;;;23.50;99.90;;;;;;6284766;22;20155;-93
2022/06/19 06:22:43;;;;;;;4.00;3.60;;;23.60;99.90;;;;;;6284564;22;20530;-95
2022/06/19 06:25:11;;;;;;;3.27;2.97;;;23.60;99.90;;;;;;6284905;22;20594;-93
2022/06/19 06:27:37;;;;;;;4.77;4.20;;;23.70;99.90;;;;;;6284614;22;20239;-93
2022/06/19 06:30:03;;;;;;;5.00;3.80;;;23.80;99.90;;;;;;6284683;22;20864;-95
2022/06/19 06:32:29;;;;;;;4.20;3.80;;;23.90;99.90;;;;;;6292442;22;20910;-96
2022/06/19 06:34:55;;;;;;;3.67;3.37;;;24.00;99.90;;;;;;6281213;22;20414;-93
2022/06/19 06:37:21;;;;;;;3.80;3.50;;;24.10;99.90;;;;;;6284161;22;20231;-95
2022/06/19 06:39:47;;;;;;;3.70;3.43;;;24.10;99.90;;;;;;6282824;22;20163;-95
2022/06/19 06:42:14;;;;;;;4.73;3.50;;;24.20;99.90;;;;;;6283706;22;20438;-96
2022/06/19 06:44:40;;;;;;;4.70;3.90;;;24.30;99.90;;;;;;6280258;22;20378;-96
2022/06/19 06:47:06;;;;;;;3.60;3.30;;;24.30;99.70;;;;;;6280787;22;20530;-93
2022/06/19 06:49:32;;;;;;;5.90;3.33;;;24.40;99.60;;;;;;6283169;22;20161;-93
2022/06/19 06:51:58;;;;;;;3.80;3.40;;;24.50;99.40;;;;;;6310805;22;20398;-93
2022/06/19 06:54:23;;;;;;;2.83;2.63;;;24.60;99.30;;;;;;6283106;22;20169;-93
2022/06/19 06:56:49;;;;;;;3.47;3.27;;;24.60;99.30;;;;;;6282620;22;20174;-96
2022/06/19 06:59:15;;;;;;;3.27;2.97;;;24.70;99.40;;;;;;6283108;22;20469;-92
2022/06/19 07:01:41;;;;;;;3.57;3.27;;;24.70;99.60;;;;;;6283891;22;20181;-93
2022/06/19 07:04:07;;;;;;;3.40;3.10;;;24.80;98.60;;;;;;6284344;22;20480;-95
2022/06/19 07:06:33;;;;;;;2.40;2.20;;;24.90;98.10;;;;;;6287747;22;20555;-96
2022/06/19 07:08:59;;;;;;;2.60;2.40;;;24.90;97.20;;;;;;6287294;22;20182;-96
2022/06/19 07:11:28;;;;;;;3.53;2.97;;;25.00;97.60;;;;;;6285116;22;20884;-96
2022/06/19 07:13:54;;;;;;;2.80;2.57;;;25.00;97.50;;;;;;6312481;22;20453;-93
2022/06/19 07:16:20;;;;;;;2.60;2.40;;;25.10;96.90;;;;;;6285147;22;20396;-94
2022/06/19 07:18:46;;;;;;;3.13;2.60;;;25.20;97.50;;;;;;6314074;22;20211;-94
2022/06/19 07:21:12;;;;;;;2.92;2.72;;;25.30;97.70;;;;;;6285060;22;20417;-96
2022/06/19 07:23:39;;;;;;;2.70;2.50;;;25.30;97.50;;;;;;6284672;22;20192;-93
2022/06/19 07:26:09;;;;;;;2.67;2.30;;;25.40;97.60;;;;;;6287010;22;20395;-94
2022/06/19 07:28:35;;;;;;;2.20;2.00;;;25.50;95.90;;;;;;6289561;22;20479;-95
2022/06/19 07:31:01;;;;;;;2.20;2.00;;;25.50;96.40;;;;;;6330490;22;20393;-93
2022/06/19 07:33:27;;;;;;;2.40;2.20;;;25.60;95.10;;;;;;6318080;22;20392;-93
2022/06/19 07:35:52;;;;;;;2.77;1.80;;;25.60;93.60;;;;;;6283641;22;20494;-94
2022/06/19 07:38:18;;;;;;;2.87;2.60;;;25.70;93.80;;;;;;6282182;22;20258;-94
2022/06/19 07:40:44;;;;;;;2.70;1.93;;;25.80;93.40;;;;;;6281689;22;20159;-94
2022/06/19 07:43:10;;;;;;;2.73;2.37;;;25.90;93.80;;;;;;6282177;22;20190;-96
2022/06/19 07:45:35;;;;;;;2.40;2.20;;;25.90;93.80;;;;;;6284305;22;20213;-94
2022/06/19 07:50:47;;;;;;;2.53;2.00;;;26.00;95.20;;;;;;6327439;22;20167;-95
2022/06/19 07:53:15;;;;;;;1.80;1.70;;;26.00;95.20;;;;;;6287701;22;20385;-95
2022/06/19 07:55:41;;;;;;;2.63;2.43;;;26.10;94.00;;;;;;6288703;22;20896;-96
2022/06/19 07:58:07;;;;;;;4.13;2.00;;;26.20;93.60;;;;;;6282279;22;20424;-95
2022/06/19 08:00:35;;;;;;;2.80;1.97;;;26.30;93.70;;;;;;6287069;22;20164;-94
2022/06/19 08:03:01;;;;;;;3.00;2.33;;;26.30;93.20;;;;;;6280466;22;20921;-94
2022/06/19 08:05:31;;;;;;;5.90;2.20;;;26.40;92.60;;;;;;6279570;22;20393;-96
2022/06/19 08:08:01;;;;;;;2.20;2.10;;;26.50;92.70;;;;;;6277690;22;20428;-96
2022/06/19 08:10:34;;;;;;;3.70;2.03;;;26.60;92.90;;;;;;6278566;22;20495;-95
2022/06/19 08:13:00;;;;;;;2.13;2.03;;;26.60;93.00;;;;;;6305138;22;20388;-94
2022/06/19 08:15:27;;;;;;;1.97;1.77;;;26.70;92.40;;;;;;6278965;22;20495;-94
2022/06/19 08:17:53;;;;;;;1.73;1.63;;;26.70;91.80;;;;;;6279182;22;20555;-93
2022/06/19 08:20:20;;;;;;;8.90;2.00;;;26.80;91.20;;;;;;6292750;22;20377;-93
2022/06/19 08:22:46;;;;;;;1.43;1.33;;;26.80;91.30;;;;;;6294159;22;20432;-94
2022/06/19 08:25:14;;;;;;;1.50;1.40;;;26.90;91.00;;;;;;6282033;22;20829;-95
2022/06/19 08:27:42;;;;;;;1.60;1.50;;;26.90;91.40;;;;;;6287298;22;20175;-94
2022/06/19 08:30:15;;;;;;;1.70;1.60;;;27.00;90.30;;;;;;6314282;22;20372;-96
2022/06/19 08:32:41;;;;;;;1.30;1.20;;;27.10;90.70;;;;;;6311006;22;20490;-95
2022/06/19 08:35:07;;;;;;;2.13;2.00;;;27.20;90.70;;;;;;6282389;22;20388;-95
2022/06/19 08:37:35;;;;;;;2.10;1.90;;;27.20;90.10;;;;;;6284114;22;20420;-96
2022/06/19 08:40:01;;;;;;;1.67;1.50;;;27.20;89.20;;;;;;6282119;22;20377;-93
2022/06/19 08:42:59;;;;;;;1.67;1.57;;;27.30;90.60;;;;;;6282630;22;20782;-94
2022/06/19 08:45:51;;;;;;;1.63;1.50;;;27.30;89.70;;;;;;6283060;22;20499;-93
2022/06/19 08:48:35;;;;;;;2.50;1.20;;;27.50;88.90;;;;;;6276266;22;20432;-96
2022/06/19 08:51:16;;;;;;;1.80;1.70;;;27.50;88.80;;;;;;6284966;22;20443;-94
2022/06/19 08:54:11;;;;;;;1.73;1.60;;;27.60;88.30;;;;;;6288623;22;20400;-96
2022/06/19 08:56:55;;;;;;;1.77;1.50;;;27.60;85.90;;;;;;6276014;22;20396;-93
2022/06/19 08:59:57;;;;;;;2.10;1.47;;;27.70;87.60;;;;;;6284979;22;20407;-96
2022/06/19 09:02:32;;;;;;;1.63;1.53;;;27.70;88.50;;;;;;6310755;22;20423;-96
2022/06/19 09:08:43;;;;;;;5.53;1.60;;;27.90;87.60;;;;;;6310317;22;20908;-93
2022/06/19 09:11:54;;;;;;;1.40;1.30;;;27.90;87.20;;;;;;6213614;22;20855;-93
2022/06/19 09:14:49;;;;;;;1.83;1.60;;;28.00;85.90;;;;;;6284172;22;20397;-93
2022/06/19 09:17:27;;;;;;;1.47;1.37;;;28.10;84.40;;;;;;6286450;22;20878;-96
2022/06/19 09:20:20;;;;;;;1.63;1.50;;;28.10;84.80;;;;;;6289301;22;20404;-93
2022/06/19 09:23:18;;;;;;;1.47;1.47;;;28.30;84.80;;;;;;6264739;22;20761;-94
2022/06/19 09:26:08;;;;;;;1.20;1.10;;;28.30;85.00;;;;;;6284392;22;20855;-94
2022/06/19 09:28:57;;;;;;;0.97;0.97;;;28.30;84.50;;;;;;6284459;22;20454;-96
2022/06/19 09:31:27;;;;;;;1.30;1.20;;;28.40;84.30;;;;;;6286133;22;20432;-96
2022/06/19 09:33:55;;;;;;;1.50;1.37;;;28.50;85.70;;;;;;6284373;22;20396;-95
2022/06/19 09:36:44;;;;;;;3.53;1.37;;;28.60;83.50;;;;;;6285849;22;20385;-96
2022/06/19 09:39:17;;;;;;;1.50;1.33;;;28.60;82.00;;;;;;6282484;22;20403;-96
2022/06/19 09:42:37;;;;;;;1.60;1.50;;;28.60;80.50;;;;;;6306512;22;20485;-96
2022/06/19 09:45:16;;;;;;;1.50;1.40;;;28.70;80.90;;;;;;6128875;23;20504;-93
2022/06/19 09:47:41;;;;;;;1.27;1.20;;;28.70;80.30;;;;;;6264307;22;20496;-93
2022/06/19 09:50:17;;;;;;;2.87;1.47;;;28.70;80.00;;;;;;6288849;22;20887;-96
2022/06/19 09:52:50;;;;;;;1.50;1.40;;;28.70;80.10;;;;;;6294795;22;20241;-94
2022/06/19 09:55:24;;;;;;;1.43;1.33;;;28.70;79.60;;;;;;6284193;22;20439;-96
2022/06/19 09:57:58;;;;;;;4.60;1.80;;;28.70;79.30;;;;;;6280024;22;20472;-96
2022/06/19 10:00:29;;;;;;;1.50;1.40;;;28.80;81.00;;;;;;6279881;22;20379;-93
2022/06/19 10:03:05;;;;;;;1.73;1.63;;;28.80;79.20;;;;;;6280999;22;20477;-93
2022/06/19 10:05:39;;;;;;;2.20;1.90;;;28.90;80.10;;;;;;6281597;22;20442;-94
2022/06/19 10:08:18;;;;;;;1.67;1.57;;;29.00;80.10;;;;;;6282788;22;20736;-93
2022/06/19 10:10:53;;;;;;;1.40;1.30;;;29.00;78.50;;;;;;6283395;22;20422;-92
2022/06/19 10:13:48;;;;;;;1.80;1.20;;;29.10;79.60;;;;;;6289729;22;20411;-92
2022/06/19 10:16:50;;;;;;;2.50;1.73;;;29.10;80.00;;;;;;6310312;22;20398;-93
2022/06/19 10:19:35;;;;;;;1.40;1.30;;;29.20;79.10;;;;;;6284433;22;20415;-94
2022/06/19 10:22:14;;;;;;;1.23;1.13;;;29.20;79.60;;;;;;6311983;22;20488;-93
2022/06/19 10:25:04;;;;;;;1.53;1.40;;;29.30;79.90;;;;;;6312013;22;20367;-93
2022/06/19 10:27:38;;;;;;;1.77;1.67;;;29.30;80.70;;;;;;6286159;22;20431;-92
2022/06/19 10:30:06;;;;;;;2.50;1.53;;;29.30;80.30;;;;;;6321402;22;20353;-92
2022/06/19 10:33:08;;;;;;;2.27;1.40;;;29.30;79.30;;;;;;6292449;22;20419;-93
2022/06/19 10:35:58;;;;;;;1.50;1.40;;;29.40;79.70;;;;;;6283954;22;20722;-93
2022/06/19 10:38:51;;;;;;;1.50;1.40;;;29.40;78.10;;;;;;6310908;22;20788;-92
2022/06/19 10:42:01;;;;;;;1.73;1.50;;;29.50;79.50;;;;;;6283533;22;20469;-93
2022/06/19 10:44:57;;;;;;;2.60;1.40;;;29.50;79.10;;;;;;6282656;22;20433;-92
2022/06/19 10:47:38;;;;;;;1.63;1.10;;;29.50;79.00;;;;;;6283623;22;20407;-93
2022/06/19 10:50:37;;;;;;;1.97;1.30;;;29.50;76.60;;;;;;6282138;22;20391;-92
2022/06/19 10:53:32;;;;;;;1.43;1.33;;;29.50;76.40;;;;;;6260979;22;20430;-92
2022/06/19 10:56:23;;;;;;;4.50;2.00;;;29.50;77.00;;;;;;6311689;22;20425;-92
2022/06/19 10:58:50;;;;;;;1.57;1.47;;;29.50;76.60;;;;;;6286731;22;20510;-91
2022/06/19 11:04:08;;;;;;;1.30;1.20;;;29.40;76.10;;;;;;6311906;22;20496;-92
2022/06/19 11:07:19;;;;;;;2.57;1.50;;;29.50;76.40;;;;;;6284175;22;20462;-93
2022/06/19 11:09:52;;;;;;;1.60;1.50;;;29.50;77.10;;;;;;6277197;22;20397;-94
2022/06/19 11:12:29;;;;;;;1.93;1.83;;;29.50;76.40;;;;;;6285022;22;20408;-92
2022/06/19 11:14:58;;;;;;;1.40;1.30;;;29.50;75.90;;;;;;6285726;22;20384;-92
2022/06/19 11:17:40;;;;;;;2.10;1.40;;;29.50;75.50;;;;;;6283216;22;20395;-92
2022/06/19 11:20:32;;;;;;;1.50;1.40;;;29.50;75.10;;;;;;6310298;22;20409;-93
2022/06/19 11:23:05;;;;;;;1.40;1.30;;;29.40;75.20;;;;;;6276597;22;20955;-93
2022/06/19 11:25:40;;;;;;;1.40;1.30;;;29.50;75.30;;;;;;6282728;22;20848;-92
2022/06/19 11:28:05;;;;;;;1.90;1.57;;;29.50;75.40;;;;;;6283748;22;20451;-93
2022/06/19 11:30:36;;;;;;;2.40;1.30;;;29.50;74.40;;;;;;6282981;22;20858;-93
2022/06/19 11:33:08;;;;;;;1.30;1.20;;;29.50;73.60;;;;;;6283085;22;20614;-93
2022/06/19 11:35:51;;;;;;;1.80;1.70;;;29.50;72.10;;;;;;6283707;22;20395;-93
2022/06/19 11:38:36;;;;;;;1.73;1.63;;;29.60;73.70;;;;;;6284045;22;20427;-92
2022/06/19 11:41:16;;;;;;;1.60;1.50;;;29.60;75.40;;;;;;6282730;22;20383;-92
2022/06/19 11:43:42;;;;;;;1.30;1.20;;;29.60;74.00;;;;;;6283855;22;20471;-93
2022/06/19 11:46:26;;;;;;;2.03;1.40;;;29.70;71.70;;;;;;6312127;22;20406;-92
2022/06/19 11:48:51;;;;;;;1.47;1.37;;;29.70;70.20;;;;;;6313137;22;20378;-92
2022/06/19 11:51:22;;;;;;;1.37;1.27;;;29.70;71.60;;;;;;6285226;22;20425;-92
2022/06/19 11:53:55;;;;;;;1.77;1.37;;;29.70;70.70;;;;;;6293143;22;20159;-92
2022/06/19 11:56:34;;;;;;;1.53;1.43;;;29.70;70.00;;;;;;6299770;22;20875;-92
2022/06/19 11:59:23;;;;;;;1.20;1.10;;;29.70;69.40;;;;;;6292237;22;20522;-93
2022/06/19 12:01:49;;;;;;;1.30;1.20;;;29.80;69.30;;;;;;6282721;22;20394;-92
2022/06/19 12:04:38;;;;;;;1.57;1.47;;;29.70;69.80;;;;;;6282365;22;20479;-94
2022/06/19 12:07:12;;;;;;;1.53;1.43;;;29.80;71.30;;;;;;6280562;22;20173;-93
2022/06/19 12:10:05;;;;;;;1.43;1.17;;;29.80;71.30;;;;;;6281444;22;20400;-93
2022/06/19 12:12:33;;;;;;;1.83;1.60;;;29.80;70.80;;;;;;6281495;22;20448;-93
2022/06/19 12:15:14;;;;;;;1.30;1.23;;;29.80;71.60;;;;;;6281955;22;20388;-92
2022/06/19 12:17:44;;;;;;;1.63;1.53;;;29.80;71.30;;;;;;6282455;22;20435;-93
2022/06/19 12:20:10;;;;;;;1.50;1.40;;;29.80;71.40;;;;;;6282619;22;20758;-93
2022/06/19 12:22:36;;;;;;;1.30;1.20;;;29.90;72.70;;;;;;6282356;22;20449;-93
2022/06/19 12:25:28;;;;;;;1.67;1.57;;;29.90;72.70;;;;;;6309444;22;20151;-93
2022/06/19 12:28:11;;;;;;;2.30;1.50;;;29.90;73.00;;;;;;6285330;22;20192;-92
2022/06/19 12:30:58;;;;;;;1.60;1.50;;;29.90;72.60;;;;;;6294755;22;20390;-92
2022/06/19 12:33:34;;;;;;;1.50;1.40;;;29.90;71.60;;;;;;6295508;22;20425;-92
2022/06/19 12:36:01;;;;;;;1.77;1.67;;;29.90;71.10;;;;;;6309247;22;20464;-92
2022/06/19 12:38:31;;;;;;;1.63;1.53;;;29.90;71.20;;;;;;6282222;22;20429;-92
2022/06/19 12:41:26;;;;;;;1.97;1.30;;;29.90;73.20;;;;;;6282144;22;20382;-93
2022/06/19 12:44:20;;;;;;;1.83;1.60;;;29.90;73.70;;;;;;6281077;22;20531;-92
2022/06/19 12:47:21;;;;;;;1.67;1.57;;;30.00;75.00;;;;;;6278543;22;20401;-92
2022/06/19 12:49:52;;;;;;;1.67;1.57;;;30.00;72.50;;;;;;6280661;22;20394;-93
2022/06/19 12:52:56;;;;;;;1.60;1.50;;;30.00;73.20;;;;;;6280339;22;20440;-93
2022/06/19 12:55:52;;;;;;;1.63;1.53;;;30.10;72.30;;;;;;6280969;22;20383;-92
2022/06/19 12:58:38;;;;;;;1.60;1.50;;;30.10;72.10;;;;;;6277013;22;20443;-92
2022/06/19 13:01:33;;;;;;;1.87;1.40;;;30.20;71.70;;;;;;6255869;22;20390;-91
2022/06/19 13:04:26;;;;;;;1.87;1.77;;;30.20;71.70;;;;;;6253090;22;20448;-92
2022/06/19 13:07:00;;;;;;;1.73;1.50;;;30.20;72.50;;;;;;6248600;22;20414;-93
2022/06/19 13:09:55;;;;;;;1.50;1.40;;;30.30;69.90;;;;;;6248381;22;20498;-93
2022/06/19 13:12:55;;;;;;;1.40;1.30;;;30.30;69.00;;;;;;6248233;22;20411;-92
2022/06/19 13:15:36;;;;;;;1.60;1.50;;;30.30;70.20;;;;;;6277686;22;20805;-92
2022/06/19 13:18:13;;;;;;;1.50;1.20;;;30.30;69.10;;;;;;6277921;22;20395;-93
2022/06/19 13:21:05;;;;;;;5.97;1.60;;;30.40;69.00;;;;;;6252792;22;20417;-94
2022/06/19 13:23:57;;;;;;;1.50;1.30;;;30.40;69.00;;;;;;6244465;22;20455;-92